EDT,Max TemperatureF,Mean TemperatureF,Min TemperatureF,Max Dew PointF,MeanDew PointF,Min DewpointF,Max Humidity, Mean Humidity, Min Humidity, Max Sea Level PressureIn, Mean Sea Level PressureIn, Min Sea Level PressureIn, Max VisibilityMiles, Mean VisibilityMiles, Min VisibilityMiles, Max Wind SpeedMPH, Mean Wind SpeedMPH, Max Gust SpeedMPH,PrecipitationIn, CloudCover, Events, WindDirDegrees
2013-4-1,77,67,55,63,59,54,100,81,44,30.03,29.97,29.92,10,9,1,12,4,16,0.00,4,Rain,281
2013-4-2,78,62,46,55,51,46,100,71,32,30.17,30.08,30.04,10,10,7,8,1,,0.00,0,,65
2013-4-3,62,56,51,57,51,41,100,77,51,30.11,30.05,29.97,10,9,2,14,3,21,0.00,4,Rain,65
2013-4-4,59,54,50,59,54,50,100,99,94,30.03,29.95,29.91,10,7,2,12,7,18,0.00,8,Rain,59
2013-4-5,60,52,42,52,48,43,100,91,68,30.09,30.00,29.90,10,8,2,8,4,,0.00,6,Rain,13
2013-4-6,75,55,35,54,46,36,100,76,36,30.20,30.14,30.09,10,8,0,8,1,,0.00,0,Fog,120
2013-4-7,80,62,44,61,54,45,100,74,42,30.20,30.13,30.07,10,10,7,12,2,17,0.00,3,,182
2013-4-8,84,67,50,63,58,50,100,76,42,30.16,30.10,30.06,10,10,7,10,2,18,0.00,1,,186
2013-4-9,87,69,51,64,59,52,100,74,40,30.17,30.12,30.08,10,9,3,12,2,18,0.00,1,,169
2013-4-10,86,70,53,64,60,54,100,78,43,30.12,30.05,29.96,10,9,5,8,1,,0.00,2,,164
2013-4-11,86,70,55,72,65,55,100,86,58,29.96,29.86,29.71,10,9,4,18,4,28,0.00,6,Rain-Thunderstorm,181
2013-4-12,77,66,55,70,59,48,100,76,36,29.96,29.84,29.73,10,10,4,15,7,28,0.00,4,Rain-Thunderstorm,288
2013-4-13,80,63,46,55,50,46,100,67,34,30.07,30.00,29.96,10,10,10,10,1,,0.00,0,,359
2013-4-14,64,60,53,59,57,52,100,92,68,30.02,29.94,29.79,10,9,2,16,2,24,0.00,4,Rain-Thunderstorm,94
2013-4-15,80,66,51,70,61,52,100,87,65,30.10,30.00,29.91,10,10,7,7,1,,0.00,4,,77
2013-4-16,86,72,59,72,66,59,100,82,55,30.20,30.15,30.10,10,9,2,10,2,,0.00,2,,87
2013-4-17,82,72,62,68,65,63,100,79,54,30.22,30.15,30.09,10,9,4,6,1,,0.00,1,,116
2013-4-18,84,70,55,68,64,55,100,80,58,30.09,30.02,29.95,10,10,4,12,2,17,0.00,2,,155
2013-4-19,80,65,50,72,61,48,100,93,74,30.13,29.96,29.88,10,9,2,15,4,23,0.00,7,Rain-Thunderstorm,249
2013-4-20,68,56,44,50,44,37,100,72,37,30.24,30.17,30.11,10,10,10,13,4,21,0.00,0,,9
2013-4-21,73,57,41,54,47,41,100,66,36,30.26,30.21,30.17,10,10,10,17,3,24,0.00,1,,77
2013-4-22,73,66,59,59,55,50,94,72,53,30.23,30.16,30.11,10,10,10,13,3,20,0.00,7,,70
2013-4-23,78,66,55,61,55,50,100,71,44,30.20,30.14,30.08,10,10,2,7,1,,0.00,4,,102
2013-4-24,82,66,50,68,61,50,100,81,54,30.18,30.12,30.08,10,10,5,14,2,20,0.00,3,Rain,212
2013-4-25,80,68,55,64,60,50,100,79,47,30.27,30.21,30.13,10,9,3,9,2,,0.00,4,,336
2013-4-26,82,62,42,55,47,41,100,62,23,30.33,30.28,30.24,10,10,10,8,1,,0.00,0,,88
2013-4-27,86,70,55,68,61,54,100,75,48,30.28,30.21,30.11,10,9,2,12,2,16,0.00,3,Rain-Thunderstorm,146
2013-4-28,78,66,55,70,63,55,100,93,69,30.14,30.06,29.98,10,7,0,14,1,20,0.00,5,Fog-Rain-Thunderstorm,194
2013-4-29,71,65,59,68,63,59,100,97,83,30.03,29.99,29.95,10,7,0,6,1,,0.00,5,Rain-Thunderstorm,70
2013-4-30,80,66,53,66,60,54,100,85,54,30.04,29.99,29.95,10,6,0,8,1,,0.00,4,Fog,89